Time;durP1;ratioP1;P1;durP2;ratioP2;P2;SDS_P1;SDS_P2;PMS_P1;PMS_P2;Temp;Humidity;BMP_temperature;BMP_pressure;BME280_temperature;BME280_humidity;BME280_pressure;Samples;Min_cycle;Max_cycle;Signal;HPM_P1;HPM_P2
2022/10/16 00:02:07;;;;;;;;;;;;;;;15.94;100.00;97941.56;5073424;28;19964;-74
2022/10/16 00:04:33;;;;;;;;;;;;;;;15.84;100.00;97936.38;5077054;28;19952;-72
2022/10/16 00:06:59;;;;;;;;;;;;;;;15.98;100.00;97933.69;5079937;28;19960;-71
2022/10/16 00:09:26;;;;;;;;;;;;;;;16.09;100.00;97932.44;5078530;28;19920;-72
2022/10/16 00:11:52;;;;;;;;;;;;;;;16.16;100.00;97938.19;5076247;28;19925;-73
2022/10/16 00:14:18;;;;;;;;;;;;;;;16.10;100.00;97934.81;5076916;28;19925;-74
2022/10/16 00:16:45;;;;;;;;;;;;;;;16.15;100.00;97932.00;5095932;28;19958;-74
2022/10/16 00:19:13;;;;;;;;;;;;;;;16.16;100.00;97939.00;5080193;28;20432;-75
2022/10/16 00:21:39;;;;;;;;;;;;;;;16.08;100.00;97937.00;5077394;28;19958;-72
2022/10/16 00:24:08;;;;;;;;;;;;;;;15.85;100.00;97932.56;5076612;28;19925;-74
2022/10/16 00:26:35;;;;;;;;;;;;;;;15.87;100.00;97945.75;5079111;28;19937;-74
2022/10/16 00:29:01;;;;;;;;;;;;;;;15.75;100.00;97940.84;5080515;28;19924;-76
2022/10/16 00:31:28;;;;;;;;;;;;;;;15.79;100.00;97944.53;5078297;28;19920;-72
2022/10/16 00:33:54;;;;;;;;;;;;;;;15.57;100.00;97937.06;5074596;28;19936;-73
2022/10/16 00:36:23;;;;;;;;;;;;;;;15.60;100.00;97941.88;5074960;28;19932;-73
2022/10/16 00:38:52;;;;;;;;;;;;;;;15.58;100.00;97937.88;5079340;28;19924;-75
2022/10/16 00:41:19;;;;;;;;;;;;;;;15.63;100.00;97951.25;5079080;28;19966;-73
2022/10/16 00:43:46;;;;;;;;;;;;;;;15.70;100.00;97946.28;5076214;28;20021;-72
2022/10/16 00:46:18;;;;;;;;;;;;;;;15.77;100.00;97941.34;5075823;28;19920;-71
2022/10/16 00:48:47;;;;;;;;;;;;;;;15.92;100.00;97937.56;5067931;28;19956;-73
2022/10/16 00:51:14;;;;;;;;;;;;;;;16.03;100.00;97936.31;5075892;28;19955;-72
2022/10/16 00:53:42;;;;;;;;;;;;;;;15.98;100.00;97931.78;5082055;28;19927;-71
2022/10/16 00:56:09;;;;;;;;;;;;;;;15.82;100.00;97933.16;5074404;28;19935;-73
2022/10/16 00:58:35;;;;;;;;;;;;;;;15.82;100.00;97937.75;5093481;28;19995;-73
2022/10/16 01:01:02;;;;;;;;;;;;;;;15.70;100.00;97934.72;5078429;28;19934;-72
2022/10/16 01:03:30;;;;;;;;;;;;;;;15.64;100.00;97948.28;5077812;28;19991;-72
2022/10/16 01:06:14;;;;;;;;;;;;;;;15.62;100.00;97946.97;5075911;28;20240;-74
2022/10/16 01:08:49;;;;;;;;;;;;;;;15.58;100.00;97943.25;5077863;28;19924;-75
2022/10/16 01:11:18;;;;;;;;;;;;;;;15.53;100.00;97946.06;5094716;28;19979;-77
2022/10/16 01:13:49;;;;;;;;;;;;;;;15.58;100.00;97943.25;5054881;28;19984;-75
2022/10/16 01:16:20;;;;;;;;;;;;;;;15.44;100.00;97945.09;5071811;28;19971;-76
2022/10/16 01:18:48;;;;;;;;;;;;;;;15.41;100.00;97942.97;5084310;28;19999;-77
2022/10/16 01:21:17;;;;;;;;;;;;;;;15.46;100.00;97948.28;5074704;28;19936;-72
2022/10/16 01:23:52;;;;;;;;;;;;;;;15.64;100.00;97950.16;5069736;28;19936;-72
2022/10/16 01:26:29;;;;;;;;;;;;;;;15.76;100.00;97955.88;5075914;28;20515;-73
2022/10/16 01:28:59;;;;;;;;;;;;;;;15.52;100.00;97955.22;5079177;28;19929;-73
2022/10/16 01:31:27;;;;;;;;;;;;;;;15.44;100.00;97958.53;5077848;28;20231;-73
2022/10/16 01:33:58;;;;;;;;;;;;;;;15.45;100.00;97968.19;5076231;28;19925;-73
2022/10/16 01:36:27;;;;;;;;;;;;;;;15.64;100.00;97974.38;5077009;28;19935;-73
2022/10/16 01:38:55;;;;;;;;;;;;;;;15.74;100.00;97974.22;5077781;28;19924;-73
2022/10/16 01:41:24;;;;;;;;;;;;;;;15.88;100.00;97975.06;5078200;28;19924;-73
2022/10/16 01:43:54;;;;;;;;;;;;;;;15.87;100.00;97978.88;5075324;28;19925;-73
2022/10/16 01:46:23;;;;;;;;;;;;;;;15.88;100.00;97975.06;5075484;28;19960;-73
2022/10/16 01:48:51;;;;;;;;;;;;;;;15.89;100.00;97976.66;5077224;28;19931;-73
2022/10/16 01:51:19;;;;;;;;;;;;;;;15.87;100.00;97978.88;5077368;28;19967;-73
2022/10/16 01:53:48;;;;;;;;;;;;;;;15.91;100.00;97984.44;5090399;28;19920;-73
2022/10/16 01:56:15;;;;;;;;;;;;;;;15.90;100.00;97988.25;5073936;28;19925;-74
2022/10/16 01:58:45;;;;;;;;;;;;;;;15.76;100.00;97984.69;5078324;28;19932;-74
2022/10/16 02:01:13;;;;;;;;;;;;;;;15.68;100.00;97978.09;5094212;28;19924;-73
2022/10/16 02:03:43;;;;;;;;;;;;;;;15.70;100.00;97984.00;5091134;28;19924;-74
2022/10/16 02:06:10;;;;;;;;;;;;;;;15.77;100.00;97983.63;5090385;28;19968;-73
2022/10/16 02:08:36;;;;;;;;;;;;;;;15.84;100.00;97987.53;5077640;28;19959;-73
2022/10/16 02:11:03;;;;;;;;;;;;;;;15.88;100.00;97980.44;5078500;28;19999;-73
2022/10/16 02:13:32;;;;;;;;;;;;;;;15.71;100.00;97977.50;5076802;28;19920;-73
2022/10/16 02:15:58;;;;;;;;;;;;;;;15.64;100.00;97982.47;5074425;28;19936;-73
2022/10/16 02:18:28;;;;;;;;;;;;;;;15.64;100.00;97990.53;5077931;28;19984;-73
2022/10/16 02:20:58;;;;;;;;;;;;;;;15.64;100.00;97985.16;5081510;28;19932;-73
2022/10/16 02:23:29;;;;;;;;;;;;;;;15.50;100.00;97982.44;5080379;28;19966;-73
2022/10/16 02:25:57;;;;;;;;;;;;;;;15.52;100.00;97979.44;5073807;28;19921;-73
2022/10/16 02:28:26;;;;;;;;;;;;;;;15.48;100.00;97989.19;5075339;28;19925;-73
2022/10/16 02:30:55;;;;;;;;;;;;;;;15.37;100.00;97974.25;5093337;28;19959;-73
2022/10/16 02:33:22;;;;;;;;;;;;;;;15.45;100.00;97987.03;5075843;28;19928;-73
2022/10/16 02:35:50;;;;;;;;;;;;;;;15.39;100.00;97989.00;5074033;28;20503;-74
2022/10/16 02:38:19;;;;;;;;;;;;;;;15.61;100.00;97985.75;5074278;28;19955;-73
2022/10/16 02:40:45;;;;;;;;;;;;;;;15.34;100.00;97980.22;5065397;28;19920;-74
2022/10/16 02:43:12;;;;;;;;;;;;;;;15.47;100.00;97987.56;5074406;28;19921;-73
2022/10/16 02:45:39;;;;;;;;;;;;;;;15.36;100.00;97989.59;5077126;28;19954;-73
2022/10/16 02:48:06;;;;;;;;;;;;;;;15.41;100.00;97997.59;5077682;28;20220;-73
2022/10/16 02:50:32;;;;;;;;;;;;;;;15.37;100.00;97998.47;5074008;28;19999;-73
2022/10/16 02:52:58;;;;;;;;;;;;;;;15.47;100.00;97993.75;5077495;28;19960;-72
2022/10/16 02:55:27;;;;;;;;;;;;;;;15.33;100.00;98000.13;5076568;28;19992;-73
2022/10/16 02:57:54;;;;;;;;;;;;;;;15.46;100.00;98000.22;5074092;28;19959;-73
2022/10/16 03:00:20;;;;;;;;;;;;;;;15.48;100.00;98008.00;5073962;28;19988;-73
2022/10/16 03:02:47;;;;;;;;;;;;;;;15.51;100.00;98005.53;5077469;28;19982;-73
2022/10/16 03:05:14;;;;;;;;;;;;;;;15.40;100.00;98000.59;5075804;28;19924;-73
2022/10/16 03:07:40;;;;;;;;;;;;;;;15.37;100.00;97998.47;5073900;28;19961;-73
2022/10/16 03:10:07;;;;;;;;;;;;;;;15.25;100.00;97987.34;5072501;28;19929;-73
2022/10/16 03:12:35;;;;;;;;;;;;;;;15.30;100.00;97992.66;5075777;28;19948;-73
2022/10/16 03:15:02;;;;;;;;;;;;;;;15.20;100.00;97993.59;5077304;28;19921;-73
2022/10/16 03:17:28;;;;;;;;;;;;;;;15.16;100.00;98000.66;5076058;28;19924;-73
2022/10/16 03:19:54;;;;;;;;;;;;;;;15.13;100.00;97996.63;5073219;28;19921;-72
2022/10/16 03:22:21;;;;;;;;;;;;;;;15.22;100.00;97994.13;5073306;28;19960;-73
2022/10/16 03:24:47;;;;;;;;;;;;;;;15.20;100.00;98000.84;5076517;28;19971;-73
2022/10/16 03:27:14;;;;;;;;;;;;;;;15.36;100.00;98010.31;5075423;28;21937;-73
2022/10/16 03:29:42;;;;;;;;;;;;;;;15.29;100.00;98002.59;5074778;28;19948;-73
2022/10/16 03:32:08;;;;;;;;;;;;;;;15.32;100.00;98015.47;5074031;28;19925;-73
2022/10/16 03:34:35;;;;;;;;;;;;;;;15.34;100.00;98020.59;5076264;28;19964;-72
2022/10/16 03:37:01;;;;;;;;;;;;;;;15.34;100.00;98016.00;5077289;28;19983;-73
2022/10/16 03:39:28;;;;;;;;;;;;;;;15.27;100.00;98012.06;5092374;28;19920;-72
2022/10/16 03:41:54;;;;;;;;;;;;;;;15.41;100.00;98021.81;5076350;28;19945;-72
2022/10/16 03:44:21;;;;;;;;;;;;;;;15.46;100.00;98016.38;5076966;28;19925;-73
2022/10/16 03:46:48;;;;;;;;;;;;;;;15.27;100.00;98018.25;5097038;28;19951;-73
2022/10/16 03:49:15;;;;;;;;;;;;;;;15.20;100.00;98014.31;5096929;28;19967;-72
2022/10/16 03:51:41;;;;;;;;;;;;;;;15.28;100.00;98013.66;5077662;28;19920;-72
2022/10/16 03:54:08;;;;;;;;;;;;;;;15.18;100.00;98011.91;5077499;28;20656;-72
2022/10/16 03:56:34;;;;;;;;;;;;;;;15.16;100.00;98016.00;5079622;28;19925;-72
2022/10/16 03:59:00;;;;;;;;;;;;;;;15.17;100.00;98021.06;5080578;28;19999;-72
2022/10/16 04:01:26;;;;;;;;;;;;;;;15.07;100.00;98013.94;5079531;28;19983;-72
2022/10/16 04:03:54;;;;;;;;;;;;;;;15.00;100.00;98013.50;5077071;28;20397;-73
2022/10/16 04:06:21;;;;;;;;;;;;;;;14.98;100.00;97999.53;5077652;28;19944;-72
2022/10/16 04:08:47;;;;;;;;;;;;;;;15.00;100.00;98010.81;5079800;28;19971;-72
2022/10/16 04:11:13;;;;;;;;;;;;;;;14.96;100.00;98012.47;5096277;28;19924;-72
2022/10/16 04:13:40;;;;;;;;;;;;;;;14.90;100.00;98024.38;5079109;28;20548;-72
2022/10/16 04:16:06;;;;;;;;;;;;;;;14.91;100.00;98025.19;5080280;28;20011;-72
2022/10/16 04:18:33;;;;;;;;;;;;;;;14.87;100.00;98030.34;5080891;28;20420;-72
2022/10/16 04:21:04;;;;;;;;;;;;;;;14.85;100.00;98027.16;5080567;28;19980;-72
2022/10/16 04:23:30;;;;;;;;;;;;;;;14.87;100.00;98034.91;5078436;28;19979;-73
2022/10/16 04:25:56;;;;;;;;;;;;;;;14.84;100.00;98035.47;5092394;28;19943;-72
2022/10/16 04:28:23;;;;;;;;;;;;;;;14.90;100.00;98042.41;5077339;28;19925;-72
2022/10/16 04:30:49;;;;;;;;;;;;;;;15.00;100.00;98053.84;5095771;28;19965;-73
2022/10/16 04:33:15;;;;;;;;;;;;;;;15.00;100.00;98050.34;5078961;28;19936;-73
2022/10/16 04:35:42;;;;;;;;;;;;;;;14.94;100.00;98054.19;5076868;28;19983;-73
2022/10/16 04:38:09;;;;;;;;;;;;;;;14.91;100.00;98052.88;5076424;28;19932;-73
2022/10/16 04:40:36;;;;;;;;;;;;;;;14.91;100.00;98058.25;5078984;28;19979;-73
2022/10/16 04:43:02;;;;;;;;;;;;;;;14.99;100.00;98068.38;5095620;28;19974;-73
2022/10/16 04:45:29;;;;;;;;;;;;;;;15.09;100.00;98057.50;5094123;28;19971;-73
2022/10/16 04:47:57;;;;;;;;;;;;;;;15.10;100.00;98058.31;5076329;28;19967;-73
2022/10/16 04:50:24;;;;;;;;;;;;;;;15.03;100.00;98066.72;5076116;28;19968;-73
2022/10/16 04:52:50;;;;;;;;;;;;;;;14.96;100.00;98063.56;5079231;28;19966;-72
2022/10/16 04:55:18;;;;;;;;;;;;;;;14.92;100.00;98062.53;5079586;28;19925;-72
2022/10/16 04:57:44;;;;;;;;;;;;;;;14.90;100.00;98055.84;5068612;28;19925;-72
2022/10/16 05:00:11;;;;;;;;;;;;;;;14.82;100.00;98048.41;5076433;28;19929;-73
2022/10/16 05:02:37;;;;;;;;;;;;;;;14.83;100.00;98055.38;5078823;28;19956;-73
2022/10/16 05:05:04;;;;;;;;;;;;;;;14.92;100.00;98054.47;5079318;28;20011;-73
2022/10/16 05:07:31;;;;;;;;;;;;;;;14.88;100.00;98053.47;5077620;28;20053;-73
2022/10/16 05:09:57;;;;;;;;;;;;;;;14.95;100.00;98059.25;5076042;28;19928;-73
2022/10/16 05:12:25;;;;;;;;;;;;;;;14.97;100.00;98067.06;5074750;28;20015;-73
2022/10/16 05:14:51;;;;;;;;;;;;;;;14.99;100.00;98067.56;5079261;28;19963;-73
2022/10/16 05:17:18;;;;;;;;;;;;;;;14.95;100.00;98063.84;5078058;28;19924;-73
2022/10/16 05:19:44;;;;;;;;;;;;;;;14.87;100.00;98064.47;5075392;28;19935;-73
2022/10/16 05:22:10;;;;;;;;;;;;;;;14.89;100.00;98065.78;5074556;28;19987;-73
2022/10/16 05:24:37;;;;;;;;;;;;;;;15.02;100.00;98073.19;5078287;28;19932;-73
2022/10/16 05:27:03;;;;;;;;;;;;;;;15.02;100.00;98083.13;5079072;28;19960;-72
2022/10/16 05:29:31;;;;;;;;;;;;;;;14.98;100.00;98063.25;5092314;28;19932;-73
2022/10/16 05:31:58;;;;;;;;;;;;;;;14.98;100.00;98076.72;5075261;28;19929;-73
2022/10/16 05:34:24;;;;;;;;;;;;;;;14.99;100.00;98076.44;5076338;28;19925;-73
2022/10/16 05:36:51;;;;;;;;;;;;;;;14.85;100.00;98070.16;5094651;28;20801;-73
2022/10/16 05:39:18;;;;;;;;;;;;;;;14.80;100.00;98064.03;5079354;28;19924;-73
2022/10/16 05:41:44;;;;;;;;;;;;;;;14.80;100.00;98075.56;5067455;28;19996;-73
2022/10/16 05:44:10;;;;;;;;;;;;;;;14.76;100.00;98066.47;5075600;28;19929;-73
2022/10/16 05:46:38;;;;;;;;;;;;;;;14.71;100.00;98045.03;5077938;28;19943;-72
2022/10/16 05:49:04;;;;;;;;;;;;;;;14.66;100.00;98049.66;5079008;28;19995;-71
2022/10/16 05:51:31;;;;;;;;;;;;;;;14.66;100.00;98038.91;5077059;28;19924;-72
2022/10/16 05:53:57;;;;;;;;;;;;;;;14.63;100.00;98034.13;5075271;28;19924;-72
2022/10/16 05:56:23;;;;;;;;;;;;;;;14.69;100.00;98041.84;5076111;28;19931;-72
2022/10/16 05:58:50;;;;;;;;;;;;;;;14.58;100.00;98045.72;5078654;28;19931;-72
2022/10/16 06:01:17;;;;;;;;;;;;;;;14.59;100.00;98055.38;5078921;28;20397;-72
2022/10/16 06:03:45;;;;;;;;;;;;;;;14.56;100.00;98066.72;5082177;28;19929;-72
2022/10/16 06:06:13;;;;;;;;;;;;;;;14.46;100.00;98067.59;5076160;28;20586;-73
2022/10/16 06:08:40;;;;;;;;;;;;;;;14.47;100.00;98068.41;5078882;28;19920;-72
2022/10/16 06:11:08;;;;;;;;;;;;;;;14.49;100.00;98072.41;5080148;28;19943;-74
2022/10/16 06:13:35;;;;;;;;;;;;;;;14.51;100.00;98074.81;5078530;28;19920;-73
2022/10/16 06:16:02;;;;;;;;;;;;;;;14.53;100.00;98075.34;5075399;28;19925;-73
2022/10/16 06:18:29;;;;;;;;;;;;;;;14.54;100.00;98085.00;5075963;28;19929;-73
2022/10/16 06:20:57;;;;;;;;;;;;;;;14.56;100.00;98096.28;5078139;28;19924;-73
2022/10/16 06:23:23;;;;;;;;;;;;;;;14.48;100.00;98086.91;5077183;28;19925;-72
2022/10/16 06:25:49;;;;;;;;;;;;;;;14.47;100.00;98100.66;5074895;28;19924;-72
2022/10/16 06:28:16;;;;;;;;;;;;;;;14.50;100.00;98095.53;5074937;28;19980;-72
2022/10/16 06:30:43;;;;;;;;;;;;;;;14.51;100.00;98097.09;5078438;28;19987;-72
2022/10/16 06:33:10;;;;;;;;;;;;;;;14.51;100.00;98101.69;5093702;28;19925;-73
2022/10/16 06:35:36;;;;;;;;;;;;;;;14.63;100.00;98120.94;5075484;28;20030;-72
2022/10/16 06:38:04;;;;;;;;;;;;;;;14.62;100.00;98124.69;5074486;28;19992;-72
2022/10/16 06:40:30;;;;;;;;;;;;;;;14.57;100.00;98132.81;5076169;28;20370;-72
2022/10/16 06:42:57;;;;;;;;;;;;;;;14.70;100.00;98140.19;5077691;28;19924;-74
2022/10/16 06:45:23;;;;;;;;;;;;;;;14.57;100.00;98138.19;5076901;28;19931;-74
2022/10/16 06:47:50;;;;;;;;;;;;;;;14.58;100.00;98154.03;5074134;28;19932;-74
2022/10/16 06:50:16;;;;;;;;;;;;;;;14.61;100.00;98158.03;5072837;28;19948;-73
2022/10/16 06:52:42;;;;;;;;;;;;;;;14.64;100.00;98148.63;5076343;28;19959;-72
2022/10/16 06:55:10;;;;;;;;;;;;;;;14.66;100.00;98158.00;5093223;28;19939;-72
2022/10/16 06:57:37;;;;;;;;;;;;;;;14.63;100.00;98157.75;5075856;28;19932;-72
2022/10/16 07:00:04;;;;;;;;;;;;;;;14.55;100.00;98161.84;5073070;28;19984;-72
2022/10/16 07:02:30;;;;;;;;;;;;;;;14.53;100.00;98161.34;5075940;28;19925;-73
2022/10/16 07:04:56;;;;;;;;;;;;;;;14.58;100.00;98170.16;5078193;28;19931;-74
2022/10/16 07:07:24;;;;;;;;;;;;;;;14.57;100.00;98181.19;5077458;28;19931;-72
2022/10/16 07:09:50;;;;;;;;;;;;;;;14.61;100.00;98184.91;5074125;28;19921;-72
2022/10/16 07:12:18;;;;;;;;;;;;;;;14.63;100.00;98180.06;5073853;28;20338;-73
2022/10/16 07:14:45;;;;;;;;;;;;;;;14.65;100.00;98182.47;5067373;28;19932;-73
2022/10/16 07:17:11;;;;;;;;;;;;;;;14.73;100.00;98184.56;5077920;28;19929;-73
2022/10/16 07:19:38;;;;;;;;;;;;;;;14.77;100.00;98188.25;5079088;28;19925;-73
2022/10/16 07:22:04;;;;;;;;;;;;;;;14.88;100.00;98195.97;5081175;28;19924;-73
2022/10/16 07:24:31;;;;;;;;;;;;;;;14.90;100.00;98196.47;5079321;28;20023;-73
2022/10/16 07:26:57;;;;;;;;;;;;;;;14.88;100.00;98195.97;5096501;28;20003;-73
2022/10/16 07:29:25;;;;;;;;;;;;;;;14.92;100.00;98193.50;5096104;28;19955;-73
2022/10/16 07:31:51;;;;;;;;;;;;;;;14.96;100.00;98203.41;5077640;28;19971;-73
2022/10/16 07:34:18;;;;;;;;;;;;;;;14.93;100.00;98200.50;5077827;28;19992;-72
2022/10/16 07:36:45;;;;;;;;;;;;;;;14.94;100.00;98192.16;5069659;28;19925;-73
2022/10/16 07:39:12;;;;;;;;;;;;;;;14.99;100.00;98186.72;5077519;28;19952;-73
2022/10/16 07:41:38;;;;;;;;;;;;;;;15.07;100.00;98186.06;5080045;28;19952;-73
2022/10/16 07:44:05;;;;;;;;;;;;;;;15.19;100.00;98199.16;5080463;28;20023;-73
2022/10/16 07:46:35;;;;;;;;;;;;;;;15.30;100.00;98199.84;5078603;28;19947;-73
2022/10/16 07:49:02;;;;;;;;;;;;;;;15.29;100.00;98198.25;5076788;28;19925;-74
2022/10/16 07:51:28;;;;;;;;;;;;;;;15.38;100.00;98208.06;5093765;28;20020;-73
2022/10/16 07:53:55;;;;;;;;;;;;;;;15.39;100.00;98211.56;5081192;28;20290;-73
2022/10/16 07:56:22;;;;;;;;;;;;;;;15.55;100.00;98203.06;5077328;28;19992;-73
2022/10/16 07:58:49;;;;;;;;;;;;;;;15.53;100.00;98199.06;5080196;28;19964;-73
2022/10/16 08:01:16;;;;;;;;;;;;;;;15.56;100.00;98202.00;5078674;28;19924;-73
2022/10/16 08:03:45;;;;;;;;;;;;;;;15.68;100.00;98198.88;5076661;28;19925;-73
2022/10/16 08:06:11;;;;;;;;;;;;;;;15.71;100.00;98198.31;5075987;28;20623;-74
2022/10/16 08:08:37;;;;;;;;;;;;;;;15.80;100.00;98190.38;5079012;28;19927;-73
2022/10/16 08:11:04;;;;;;;;;;;;;;;15.86;100.00;98205.38;5095017;28;19935;-72
2022/10/16 08:13:30;;;;;;;;;;;;;;;15.91;100.00;98206.09;5093522;28;20063;-73
2022/10/16 08:15:57;;;;;;;;;;;;;;;15.92;100.00;98207.72;5075238;28;19925;-73
2022/10/16 08:18:23;;;;;;;;;;;;;;;15.94;100.00;98208.22;5076498;28;19931;-73
2022/10/16 08:20:57;;;;;;;;;;;;;;;15.97;100.00;98210.31;5080338;28;19925;-74
2022/10/16 08:23:25;;;;;;;;;;;;;;;16.07;100.00;98225.56;5079891;28;20004;-73
2022/10/16 08:25:51;;;;;;;;;;;;;;;16.20;100.00;98230.22;5076999;28;20139;-73
2022/10/16 08:28:18;;;;;;;;;;;;;;;16.29;100.00;98222.28;5077168;28;19924;-73
2022/10/16 08:30:44;;;;;;;;;;;;;;;16.36;100.00;98214.63;5069937;28;19952;-72
2022/10/16 08:33:11;;;;;;;;;;;;;;;16.46;100.00;98230.66;5076977;28;20565;-74
2022/10/16 08:35:37;;;;;;;;;;;;;;;16.36;100.00;98238.91;5079341;28;19998;-73
2022/10/16 08:38:05;;;;;;;;;;;;;;;16.43;100.00;98229.34;5078897;28;19996;-75
2022/10/16 08:40:34;;;;;;;;;;;;;;;16.54;100.00;98230.81;5078400;28;19924;-73
2022/10/16 08:43:10;;;;;;;;;;;;;;;16.65;100.00;98231.44;5075280;28;19928;-73
2022/10/16 08:45:44;;;;;;;;;;;;;;;16.59;100.00;98227.22;5079133;28;19920;-73
2022/10/16 08:48:18;;;;;;;;;;;;;;;16.61;100.00;98220.47;5079829;28;19931;-73
2022/10/16 08:50:44;;;;;;;;;;;;;;;16.64;100.00;98219.88;5067325;28;19924;-73
2022/10/16 08:53:15;;;;;;;;;;;;;;;16.63;100.00;98218.28;5079933;28;19924;-73
2022/10/16 08:55:43;;;;;;;;;;;;;;;16.58;100.00;98206.78;5076445;28;19931;-73
2022/10/16 08:58:12;;;;;;;;;;;;;;;16.58;100.00;98209.47;5091665;28;19951;-73
2022/10/16 09:00:39;;;;;;;;;;;;;;;16.61;100.00;98203.50;5079261;28;20023;-74
2022/10/16 09:03:11;;;;;;;;;;;;;;;16.74;100.00;98200.81;5079696;28;19963;-73
2022/10/16 09:05:49;;;;;;;;;;;;;;;16.76;100.00;98207.81;5076887;28;19925;-73
2022/10/16 09:08:23;;;;;;;;;;;;;;;16.84;100.00;98209.84;5076047;28;19928;-73
2022/10/16 09:10:55;;;;;;;;;;;;;;;16.87;100.00;98207.34;5068466;28;19992;-72
2022/10/16 09:13:25;;;;;;;;;;;;;;;16.99;100.00;98215.75;5076655;28;19952;-73
2022/10/16 09:15:56;;;;;;;;;;;;;;;17.10;100.00;98211.81;5095340;28;19924;-73
2022/10/16 09:18:27;;;;;;;;;;;;;;;17.24;100.00;98215.31;5077708;28;19925;-73
2022/10/16 09:20:57;;;;;;;;;;;;;;;17.21;100.00;98207.81;5074931;28;19924;-73
2022/10/16 09:23:27;;;;;;;;;;;;;;;17.37;100.00;98210.22;5081781;28;19935;-74
2022/10/16 09:25:53;;;;;;;;;;;;;;;17.44;100.00;98216.03;5075636;28;19925;-74
2022/10/16 09:28:20;;;;;;;;;;;;;;;17.54;100.00;98210.44;5075898;28;19929;-74
2022/10/16 09:30:48;;;;;;;;;;;;;;;17.48;100.00;98206.25;5079339;28;20000;-74
2022/10/16 09:33:14;;;;;;;;;;;;;;;17.61;100.00;98216.25;5079038;28;19955;-73
2022/10/16 09:35:42;;;;;;;;;;;;;;;17.70;100.00;98206.38;5076086;28;20000;-73
2022/10/16 09:38:09;;;;;;;;;;;;;;;17.68;100.00;98222.88;5075152;28;19932;-73
2022/10/16 09:40:38;;;;;;;;;;;;;;;17.64;100.00;98221.84;5077797;28;19935;-73
2022/10/16 09:43:13;;;;;;;;;;;;;;;17.76;100.00;98221.38;5078728;28;20057;-74
2022/10/16 09:45:40;;;;;;;;;;;;;;;17.73;100.00;98235.47;5075768;28;19992;-73
2022/10/16 09:48:11;;;;;;;;;;;;;;;17.66;100.00;98243.97;5075269;28;19924;-73
2022/10/16 09:50:38;;;;;;;;;;;;;;;17.74;100.00;98247.88;5076466;28;19936;-73
2022/10/16 09:53:05;;;;;;;;;;;;;;;17.73;100.00;98246.28;5078235;28;19952;-73
2022/10/16 09:55:32;;;;;;;;;;;;;;;17.88;100.00;98259.47;5092200;28;19924;-74
2022/10/16 09:57:59;;;;;;;;;;;;;;;17.81;100.00;98250.97;5075109;28;19924;-73
2022/10/16 10:00:26;;;;;;;;;;;;;;;17.99;100.00;98255.44;5074700;28;19952;-73
2022/10/16 10:02:53;;;;;;;;;;;;;;;18.06;100.00;98252.34;5078243;28;20002;-73
2022/10/16 10:05:21;;;;;;;;;;;;;;;18.02;100.00;98254.84;5078057;28;19960;-73
2022/10/16 10:07:54;;;;;;;;;;;;;;;18.03;100.00;98261.06;5075134;28;20302;-73
2022/10/16 10:10:22;;;;;;;;;;;;;;;18.14;100.00;98262.44;5075291;28;19959;-73
2022/10/16 10:12:48;;;;;;;;;;;;;;;18.17;100.00;98253.72;5078177;28;19984;-73
2022/10/16 10:15:19;;;;;;;;;;;;;;;18.24;100.00;98254.91;5093519;28;19936;-73
2022/10/16 10:17:47;;;;;;;;;;;;;;;18.27;100.00;98259.72;5067227;28;19936;-73
2022/10/16 10:20:21;;;;;;;;;;;;;;;18.22;100.00;98250.91;5074962;28;19956;-73
2022/10/16 10:22:48;;;;;;;;;;;;;;;18.33;100.00;98249.56;5068906;28;19932;-73
2022/10/16 10:25:27;;;;;;;;;;;;;;;18.32;100.00;98254.19;5078286;28;19968;-75
2022/10/16 10:28:12;;;;;;;;;;;;;;;18.28;100.00;98252.41;5068789;28;19947;-73
2022/10/16 10:30:43;;;;;;;;;;;;;;;18.35;100.00;98241.97;5077820;28;19932;-73
2022/10/16 10:33:19;;;;;;;;;;;;;;;18.27;100.00;98234.56;5078570;28;19936;-73
2022/10/16 10:35:49;;;;;;;;;;;;;;;18.27;100.00;98237.28;5067570;28;19932;-74
2022/10/16 10:38:25;;;;;;;;;;;;;;;18.40;100.00;98241.03;5073844;28;19924;-76
2022/10/16 10:40:53;;;;;;;;;;;;;;;18.45;100.00;98236.31;5067350;28;20429;-72
2022/10/16 10:43:30;;;;;;;;;;;;;;;18.51;100.00;98234.31;5075238;28;19964;-75
2022/10/16 10:46:01;;;;;;;;;;;;;;;18.52;100.00;98233.22;5078469;28;19925;-74
2022/10/16 10:48:45;;;;;;;;;;;;;;;18.55;100.00;98235.31;5076982;28;19920;-73
2022/10/16 10:51:13;;;;;;;;;;;;;;;18.63;100.00;98245.41;5073155;28;19929;-73
2022/10/16 10:53:43;;;;;;;;;;;;;;;18.63;100.00;98237.31;5079705;28;19954;-73
2022/10/16 10:56:16;;;;;;;;;;;;;;;18.63;100.00;98234.59;5074022;28;19925;-72
2022/10/16 10:59:01;;;;;;;;;;;;;;;18.62;100.00;98241.09;5077250;28;19920;-73
2022/10/16 11:01:34;;;;;;;;;;;;;;;18.57;100.00;98243.94;5076190;28;19925;-74
2022/10/16 11:04:15;;;;;;;;;;;;;;;18.46;100.00;98232.53;5073783;28;19992;-73
2022/10/16 11:06:45;;;;;;;;;;;;;;;18.59;100.00;98241.72;5077191;28;19924;-75
2022/10/16 11:09:15;;;;;;;;;;;;;;;18.72;100.00;98238.94;5077474;28;19928;-73
2022/10/16 11:11:43;;;;;;;;;;;;;;;18.76;100.00;98234.53;5074227;28;19951;-73
2022/10/16 11:14:15;;;;;;;;;;;;;;;18.99;100.00;98229.91;5073516;28;20008;-74
2022/10/16 11:16:45;;;;;;;;;;;;;;;19.01;100.00;98222.25;5076805;28;19975;-74
2022/10/16 11:19:15;;;;;;;;;;;;;;;19.13;100.00;98219.78;5077263;28;19928;-75
2022/10/16 11:21:48;;;;;;;;;;;;;;;19.18;100.00;98226.97;5073712;28;19936;-74
2022/10/16 11:24:17;;;;;;;;;;;;;;;19.26;100.00;98231.63;5073690;28;19925;-74
2022/10/16 11:26:44;;;;;;;;;;;;;;;19.18;100.00;98227.78;5076750;28;20038;-74
2022/10/16 11:29:14;;;;;;;;;;;;;;;19.28;100.00;98235.63;5077039;28;19991;-75
2022/10/16 11:31:44;;;;;;;;;;;;;;;19.58;100.00;98230.53;5074770;28;20125;-74
2022/10/16 11:34:17;;;;;;;;;;;;;;;19.50;100.00;98232.09;5089217;28;19996;-74
2022/10/16 11:36:46;;;;;;;;;;;;;;;19.58;100.00;98225.13;5075635;28;19935;-74
2022/10/16 11:39:19;;;;;;;;;;;;;;;19.66;100.00;98218.91;5077444;28;19928;-74
2022/10/16 11:41:48;;;;;;;;;;;;;;;19.97;100.00;98219.63;5065906;28;20108;-74
2022/10/16 11:44:23;;;;;;;;;;;;;;;20.07;100.00;98224.75;5073391;28;19948;-74
2022/10/16 11:46:53;;;;;;;;;;;;;;;20.21;100.00;98221.91;5081601;28;19931;-74
2022/10/16 11:49:23;;;;;;;;;;;;;;;20.26;100.00;98233.44;5073469;28;19925;-75
2022/10/16 11:51:53;;;;;;;;;;;;;;;20.45;100.00;98217.66;5076781;28;20010;-72
2022/10/16 11:54:24;;;;;;;;;;;;;;;20.51;100.00;98212.06;5074300;28;19951;-75
2022/10/16 11:56:54;;;;;;;;;;;;;;;20.46;100.00;98211.09;5077204;28;19970;-78
2022/10/16 11:59:24;;;;;;;;;;;;;;;20.51;100.00;98212.84;5092258;28;19924;-75
2022/10/16 12:01:53;;;;;;;;;;;;;;;20.57;100.00;98210.78;5075107;28;19924;-74
2022/10/16 12:04:27;;;;;;;;;;;;;;;20.17;100.00;98208.19;5077047;28;19935;-74
2022/10/16 12:06:56;;;;;;;;;;;;;;;20.31;100.00;98217.00;5080521;28;19924;-74
2022/10/16 12:09:25;;;;;;;;;;;;;;;20.48;100.00;98220.84;5080597;28;19948;-73
2022/10/16 12:11:51;;;;;;;;;;;;;;;20.65;100.00;98218.09;5077209;28;19960;-76
2022/10/16 12:14:22;;;;;;;;;;;;;;;20.76;100.00;98198.47;5076827;28;19992;-75
2022/10/16 12:16:53;;;;;;;;;;;;;;;20.83;100.00;98201.47;5068240;28;19988;-75
2022/10/16 12:19:20;;;;;;;;;;;;;;;20.88;100.00;98197.81;5077040;28;20003;-74
2022/10/16 12:21:48;;;;;;;;;;;;;;;20.84;100.00;98202.28;5080551;28;19974;-74
2022/10/16 12:24:30;;;;;;;;;;;;;;;20.95;100.00;98192.69;5078350;28;19921;-74
2022/10/16 12:26:56;;;;;;;;;;;;;;;21.07;100.00;98198.25;5068050;28;19936;-74
2022/10/16 12:29:29;;;;;;;;;;;;;;;21.05;100.00;98203.19;5075602;28;19931;-75
2022/10/16 12:31:55;;;;;;;;;;;;;;;21.00;100.00;98201.44;5078758;28;19920;-75
2022/10/16 12:34:24;;;;;;;;;;;;;;;21.08;100.00;98202.53;5079698;28;20334;-74
2022/10/16 12:36:52;;;;;;;;;;;;;;;21.08;100.00;98199.00;5076334;28;19973;-75
2022/10/16 12:39:22;;;;;;;;;;;;;;;21.00;100.00;98195.22;5091971;28;19932;-74
2022/10/16 12:41:48;;;;;;;;;;;;;;;20.84;100.00;98202.28;5067768;28;19951;-74